sensor_id;sensor_type;location;lat;lon;timestamp;pressure;altitude;pressure_sealevel;temperature;humidity
56944;BME280;42848;42.524;12.052;2023-03-13T00:02:12;96864.44;;;11.72;100.00
56944;BME280;42848;42.524;12.052;2023-03-13T00:04:37;96868.00;;;11.21;100.00
56944;BME280;42848;42.524;12.052;2023-03-13T00:07:03;96859.66;;;11.60;100.00
56944;BME280;42848;42.524;12.052;2023-03-13T00:09:29;96858.22;;;11.63;100.00
56944;BME280;42848;42.524;12.052;2023-03-13T00:11:55;96851.44;;;11.78;100.00
56944;BME280;42848;42.524;12.052;2023-03-13T00:14:21;96852.00;;;11.54;100.00
56944;BME280;42848;42.524;12.052;2023-03-13T00:16:47;96860.94;;;11.63;100.00
56944;BME280;42848;42.524;12.052;2023-03-13T00:19:14;96862.88;;;11.45;100.00
56944;BME280;42848;42.524;12.052;2023-03-13T00:21:40;96866.56;;;11.23;100.00
56944;BME280;42848;42.524;12.052;2023-03-13T00:24:06;96863.69;;;11.54;100.00
56944;BME280;42848;42.524;12.052;2023-03-13T00:26:33;96872.78;;;11.50;100.00
56944;BME280;42848;42.524;12.052;2023-03-13T00:28:59;96871.06;;;11.28;100.00
56944;BME280;42848;42.524;12.052;2023-03-13T00:31:28;96867.22;;;11.11;100.00
56944;BME280;42848;42.524;12.052;2023-03-13T00:33:58;96859.84;;;11.03;100.00
56944;BME280;42848;42.524;12.052;2023-03-13T00:36:27;96859.53;;;10.96;100.00
56944;BME280;42848;42.524;12.052;2023-03-13T00:38:55;96856.34;;;11.29;100.00
56944;BME280;42848;42.524;12.052;2023-03-13T00:41:23;96863.22;;;11.52;100.00
56944;BME280;42848;42.524;12.052;2023-03-13T00:43:50;96865.75;;;11.57;100.00
56944;BME280;42848;42.524;12.052;2023-03-13T00:46:18;96861.41;;;11.74;100.00
56944;BME280;42848;42.524;12.052;2023-03-13T00:48:45;96853.28;;;11.56;100.00
56944;BME280;42848;42.524;12.052;2023-03-13T00:51:12;96861.72;;;11.81;100.00
56944;BME280;42848;42.524;12.052;2023-03-13T00:53:39;96865.59;;;11.62;100.00
56944;BME280;42848;42.524;12.052;2023-03-13T00:56:07;96861.88;;;11.67;100.00
56944;BME280;42848;42.524;12.052;2023-03-13T00:58:36;96870.38;;;11.48;100.00
56944;BME280;42848;42.524;12.052;2023-03-13T01:01:18;96872.09;;;11.70;100.00
56944;BME280;42848;42.524;12.052;2023-03-13T01:03:52;96876.31;;;11.42;100.00
56944;BME280;42848;42.524;12.052;2023-03-13T01:06:22;96880.13;;;11.49;100.00
56944;BME280;42848;42.524;12.052;2023-03-13T01:08:48;96886.69;;;11.48;100.00
56944;BME280;42848;42.524;12.052;2023-03-13T01:11:17;96882.56;;;11.25;100.00
56944;BME280;42848;42.524;12.052;2023-03-13T01:13:43;96893.44;;;11.07;100.00
56944;BME280;42848;42.524;12.052;2023-03-13T01:16:18;96882.56;;;10.42;100.00
56944;BME280;42848;42.524;12.052;2023-03-13T01:18:46;96882.41;;;10.38;100.00
56944;BME280;42848;42.524;12.052;2023-03-13T01:21:14;96887.00;;;10.86;100.00
56944;BME280;42848;42.524;12.052;2023-03-13T01:23:40;96896.72;;;10.78;100.00
56944;BME280;42848;42.524;12.052;2023-03-13T01:26:07;96896.16;;;11.16;100.00
56944;BME280;42848;42.524;12.052;2023-03-13T01:28:33;96890.22;;;10.88;100.00
56944;BME280;42848;42.524;12.052;2023-03-13T01:31:00;96889.41;;;11.05;100.00
56944;BME280;42848;42.524;12.052;2023-03-13T01:33:26;96885.44;;;11.20;100.00
56944;BME280;42848;42.524;12.052;2023-03-13T01:35:52;96889.91;;;10.98;100.00
56944;BME280;42848;42.524;12.052;2023-03-13T01:38:17;96890.84;;;11.02;100.00
56944;BME280;42848;42.524;12.052;2023-03-13T01:40:45;96895.47;;;10.85;100.00
56944;BME280;42848;42.524;12.052;2023-03-13T01:43:20;96886.41;;;10.98;100.00
56944;BME280;42848;42.524;12.052;2023-03-13T01:54:18;96883.75;;;10.58;100.00
56944;BME280;42848;42.524;12.052;2023-03-13T01:57:26;96887.75;;;10.69;100.00
56944;BME280;42848;42.524;12.052;2023-03-13T02:00:23;96889.09;;;11.24;100.00
56944;BME280;42848;42.524;12.052;2023-03-13T02:02:52;96888.81;;;11.17;100.00
56944;BME280;42848;42.524;12.052;2023-03-13T02:05:21;96889.59;;;11.08;100.00
56944;BME280;42848;42.524;12.052;2023-03-13T02:07:55;96895.63;;;11.05;100.00
56944;BME280;42848;42.524;12.052;2023-03-13T02:10:22;96892.78;;;11.10;100.00
56944;BME280;42848;42.524;12.052;2023-03-13T02:12:50;96891.66;;;11.11;100.00
56944;BME280;42848;42.524;12.052;2023-03-13T02:15:19;96887.69;;;11.18;100.00
56944;BME280;42848;42.524;12.052;2023-03-13T02:17:46;96888.00;;;11.25;100.00
56944;BME280;42848;42.524;12.052;2023-03-13T02:20:13;96881.28;;;11.31;100.00
56944;BME280;42848;42.524;12.052;2023-03-13T02:25:45;96889.28;;;11.36;100.00
56944;BME280;42848;42.524;12.052;2023-03-13T02:28:18;96885.91;;;11.30;100.00
56944;BME280;42848;42.524;12.052;2023-03-13T02:30:46;96892.94;;;11.40;100.00
56944;BME280;42848;42.524;12.052;2023-03-13T02:33:13;96892.94;;;11.31;100.00
56944;BME280;42848;42.524;12.052;2023-03-13T02:35:41;96885.91;;;11.30;100.00
56944;BME280;42848;42.524;12.052;2023-03-13T02:38:09;96884.97;;;11.35;100.00
56944;BME280;42848;42.524;12.052;2023-03-13T02:40:41;96888.28;;;11.15;100.00
56944;BME280;42848;42.524;12.052;2023-03-13T02:46:13;96896.13;;;11.33;100.00
56944;BME280;42848;42.524;12.052;2023-03-13T02:48:42;96903.97;;;11.09;100.00
56944;BME280;42848;42.524;12.052;2023-03-13T02:51:32;96886.69;;;11.48;100.00
56944;BME280;42848;42.524;12.052;2023-03-13T02:54:04;96898.56;;;11.35;100.00
56944;BME280;42848;42.524;12.052;2023-03-13T02:56:33;96896.78;;;11.30;100.00
56944;BME280;42848;42.524;12.052;2023-03-13T02:59:01;96898.38;;;11.49;100.00
56944;BME280;42848;42.524;12.052;2023-03-13T03:01:26;96901.75;;;11.28;100.00
56944;BME280;42848;42.524;12.052;2023-03-13T03:03:52;96902.38;;;11.17;100.00
56944;BME280;42848;42.524;12.052;2023-03-13T03:06:18;96903.81;;;11.23;100.00
56944;BME280;42848;42.524;12.052;2023-03-13T03:08:44;96900.41;;;10.74;100.00
56944;BME280;42848;42.524;12.052;2023-03-13T03:11:10;96902.28;;;10.65;100.00
56944;BME280;42848;42.524;12.052;2023-03-13T03:13:36;96901.16;;;10.57;100.00
56944;BME280;42848;42.524;12.052;2023-03-13T03:16:09;96896.16;;;10.50;100.00
56944;BME280;42848;42.524;12.052;2023-03-13T03:18:35;96906.47;;;10.71;100.00
56944;BME280;42848;42.524;12.052;2023-03-13T03:21:02;96905.97;;;10.69;100.00
56944;BME280;42848;42.524;12.052;2023-03-13T03:23:34;96908.66;;;10.51;100.00
56944;BME280;42848;42.524;12.052;2023-03-13T03:26:00;96915.13;;;10.81;100.00
56944;BME280;42848;42.524;12.052;2023-03-13T03:28:26;96920.56;;;10.90;100.00
56944;BME280;42848;42.524;12.052;2023-03-13T03:30:52;96920.38;;;10.78;100.00
56944;BME280;42848;42.524;12.052;2023-03-13T03:33:20;96923.97;;;10.47;100.00
56944;BME280;42848;42.524;12.052;2023-03-13T03:35:45;96933.84;;;10.43;100.00
56944;BME280;42848;42.524;12.052;2023-03-13T03:38:11;96938.97;;;9.91;100.00
56944;BME280;42848;42.524;12.052;2023-03-13T03:40:37;96930.50;;;9.62;100.00
56944;BME280;42848;42.524;12.052;2023-03-13T03:43:02;96930.97;;;9.86;100.00
56944;BME280;42848;42.524;12.052;2023-03-13T03:45:28;96938.50;;;9.89;100.00
56944;BME280;42848;42.524;12.052;2023-03-13T03:47:53;96940.59;;;10.23;100.00
56944;BME280;42848;42.524;12.052;2023-03-13T03:50:20;96933.78;;;10.26;100.00
56944;BME280;42848;42.524;12.052;2023-03-13T03:52:45;96941.84;;;10.48;100.00
56944;BME280;42848;42.524;12.052;2023-03-13T03:55:11;96941.63;;;10.36;100.00
56944;BME280;42848;42.524;12.052;2023-03-13T03:57:36;96932.41;;;10.46;100.00
56944;BME280;42848;42.524;12.052;2023-03-13T04:00:03;96931.38;;;10.33;100.00
56944;BME280;42848;42.524;12.052;2023-03-13T04:02:30;96930.53;;;10.24;100.00
56944;BME280;42848;42.524;12.052;2023-03-13T04:04:55;96932.97;;;10.65;100.00
56944;BME280;42848;42.524;12.052;2023-03-13T04:07:21;96929.38;;;10.47;100.00
56944;BME280;42848;42.524;12.052;2023-03-13T04:09:46;96932.50;;;10.32;100.00
56944;BME280;42848;42.524;12.052;2023-03-13T04:12:12;96927.47;;;10.17;100.00
56944;BME280;42848;42.524;12.052;2023-03-13T04:14:38;96932.97;;;10.25;100.00
56944;BME280;42848;42.524;12.052;2023-03-13T04:17:03;96938.22;;;10.22;100.00
56944;BME280;42848;42.524;12.052;2023-03-13T04:19:29;96929.75;;;10.23;100.00
56944;BME280;42848;42.524;12.052;2023-03-13T04:21:55;96936.97;;;10.28;100.00
56944;BME280;42848;42.524;12.052;2023-03-13T04:24:20;96927.72;;;10.29;100.00
56944;BME280;42848;42.524;12.052;2023-03-13T04:26:46;96930.91;;;10.00;100.00
56944;BME280;42848;42.524;12.052;2023-03-13T04:29:11;96923.47;;;9.61;100.00
56944;BME280;42848;42.524;12.052;2023-03-13T04:31:37;96924.34;;;10.01;100.00
56944;BME280;42848;42.524;12.052;2023-03-13T04:34:02;96931.31;;;10.16;100.00
56944;BME280;42848;42.524;12.052;2023-03-13T04:36:28;96935.38;;;10.27;100.00
56944;BME280;42848;42.524;12.052;2023-03-13T04:38:53;96924.19;;;9.75;100.00
56944;BME280;42848;42.524;12.052;2023-03-13T04:41:19;96927.75;;;10.07;100.00
56944;BME280;42848;42.524;12.052;2023-03-13T04:43:45;96932.69;;;10.13;100.00
56944;BME280;42848;42.524;12.052;2023-03-13T04:46:10;96929.75;;;9.48;100.00
56944;BME280;42848;42.524;12.052;2023-03-13T04:48:36;96930.25;;;9.72;100.00
56944;BME280;42848;42.524;12.052;2023-03-13T04:51:02;96928.34;;;9.73;100.00
56944;BME280;42848;42.524;12.052;2023-03-13T04:53:27;96927.16;;;9.43;100.00
56944;BME280;42848;42.524;12.052;2023-03-13T04:55:53;96941.94;;;9.59;100.00
56944;BME280;42848;42.524;12.052;2023-03-13T04:58:18;96943.22;;;9.84;100.00
56944;BME280;42848;42.524;12.052;2023-03-13T05:00:44;96933.00;;;9.81;100.00
56944;BME280;42848;42.524;12.052;2023-03-13T05:03:10;96936.03;;;9.79;100.00
56944;BME280;42848;42.524;12.052;2023-03-13T05:05:35;96932.44;;;9.92;100.00
56944;BME280;42848;42.524;12.052;2023-03-13T05:08:01;96931.41;;;9.80;100.00
56944;BME280;42848;42.524;12.052;2023-03-13T05:10:27;96934.19;;;9.66;100.00
56944;BME280;42848;42.524;12.052;2023-03-13T05:12:53;96934.00;;;9.62;100.00
56944;BME280;42848;42.524;12.052;2023-03-13T05:15:18;96939.59;;;9.88;100.00
56944;BME280;42848;42.524;12.052;2023-03-13T05:17:44;96944.09;;;9.93;100.00
56944;BME280;42848;42.524;12.052;2023-03-13T05:20:10;96939.56;;;10.11;100.00
56944;BME280;42848;42.524;12.052;2023-03-13T05:22:36;96947.81;;;9.52;100.00
56944;BME280;42848;42.524;12.052;2023-03-13T05:25:03;96960.72;;;9.33;100.00
56944;BME280;42848;42.524;12.052;2023-03-13T05:27:30;96960.63;;;9.60;100.00
56944;BME280;42848;42.524;12.052;2023-03-13T05:29:55;96963.13;;;9.34;100.00
56944;BME280;42848;42.524;12.052;2023-03-13T05:32:21;96963.72;;;9.31;100.00
56944;BME280;42848;42.524;12.052;2023-03-13T05:34:47;96963.91;;;9.35;100.00
56944;BME280;42848;42.524;12.052;2023-03-13T05:37:12;96972.16;;;9.30;100.00
56944;BME280;42848;42.524;12.052;2023-03-13T05:39:38;96971.31;;;9.65;100.00
56944;BME280;42848;42.524;12.052;2023-03-13T05:42:04;96974.00;;;9.79;100.00
56944;BME280;42848;42.524;12.052;2023-03-13T05:44:29;96983.59;;;9.85;100.00
56944;BME280;42848;42.524;12.052;2023-03-13T05:46:55;96985.13;;;10.00;100.00
56944;BME280;42848;42.524;12.052;2023-03-13T05:49:20;96979.88;;;10.04;100.00
56944;BME280;42848;42.524;12.052;2023-03-13T05:51:46;96980.72;;;10.13;100.00
56944;BME280;42848;42.524;12.052;2023-03-13T05:54:12;96977.00;;;10.22;100.00
56944;BME280;42848;42.524;12.052;2023-03-13T05:56:37;96970.97;;;10.25;100.00
56944;BME280;42848;42.524;12.052;2023-03-13T05:59:03;96968.13;;;10.39;100.00
56944;BME280;42848;42.524;12.052;2023-03-13T06:01:28;96965.44;;;10.39;100.00
56944;BME280;42848;42.524;12.052;2023-03-13T06:03:54;96969.38;;;10.33;100.00
56944;BME280;42848;42.524;12.052;2023-03-13T06:06:20;96967.19;;;10.35;100.00
56944;BME280;42848;42.524;12.052;2023-03-13T06:08:45;96967.84;;;10.49;100.00
56944;BME280;42848;42.524;12.052;2023-03-13T06:11:11;96973.13;;;10.46;100.00
56944;BME280;42848;42.524;12.052;2023-03-13T06:13:36;96978.44;;;10.60;100.00
56944;BME280;42848;42.524;12.052;2023-03-13T06:16:02;96970.56;;;10.49;100.00
56944;BME280;42848;42.524;12.052;2023-03-13T06:18:28;96975.72;;;10.60;100.00
56944;BME280;42848;42.524;12.052;2023-03-13T06:20:58;96964.53;;;10.52;100.00
56944;BME280;42848;42.524;12.052;2023-03-13T06:23:24;96970.81;;;10.62;100.00
56944;BME280;42848;42.524;12.052;2023-03-13T06:25:50;96969.75;;;10.80;100.00
56944;BME280;42848;42.524;12.052;2023-03-13T06:28:16;96967.97;;;10.75;100.00
56944;BME280;42848;42.524;12.052;2023-03-13T06:30:41;96963.53;;;10.88;100.00
56944;BME280;42848;42.524;12.052;2023-03-13T06:33:07;96963.53;;;10.88;100.00
56944;BME280;42848;42.524;12.052;2023-03-13T06:35:33;96972.50;;;10.89;100.00
56944;BME280;42848;42.524;12.052;2023-03-13T06:37:59;96967.91;;;11.06;100.00
56944;BME280;42848;42.524;12.052;2023-03-13T06:40:24;96976.53;;;11.08;100.00
56944;BME280;42848;42.524;12.052;2023-03-13T06:42:50;96972.38;;;11.11;100.00
56944;BME280;42848;42.524;12.052;2023-03-13T06:45:15;96979.41;;;11.21;100.00
56944;BME280;42848;42.524;12.052;2023-03-13T06:47:41;96983.25;;;11.20;100.00
56944;BME280;42848;42.524;12.052;2023-03-13T06:50:07;96980.41;;;11.25;100.00
56944;BME280;42848;42.524;12.052;2023-03-13T06:52:33;96984.38;;;11.27;100.00
56944;BME280;42848;42.524;12.052;2023-03-13T06:54:59;96989.38;;;11.34;100.00
56944;BME280;42848;42.524;12.052;2023-03-13T06:57:26;96996.56;;;11.47;100.00
56944;BME280;42848;42.524;12.052;2023-03-13T06:59:51;96997.22;;;11.61;100.00
56944;BME280;42848;42.524;12.052;2023-03-13T07:02:17;96996.69;;;11.42;100.00
56944;BME280;42848;42.524;12.052;2023-03-13T07:04:43;96993.84;;;11.56;100.00
56944;BME280;42848;42.524;12.052;2023-03-13T07:07:10;97003.47;;;11.62;100.00
56944;BME280;42848;42.524;12.052;2023-03-13T07:09:35;97008.25;;;11.65;100.00
56944;BME280;42848;42.524;12.052;2023-03-13T07:12:01;97003.94;;;11.73;100.00
56944;BME280;42848;42.524;12.052;2023-03-13T07:14:27;97006.47;;;11.69;100.00
56944;BME280;42848;42.524;12.052;2023-03-13T07:16:53;97012.59;;;11.83;100.00
56944;BME280;42848;42.524;12.052;2023-03-13T07:19:19;97016.13;;;11.84;100.00
56944;BME280;42848;42.524;12.052;2023-03-13T07:21:44;97020.09;;;11.86;100.00
56944;BME280;42848;42.524;12.052;2023-03-13T07:24:11;97014.19;;;11.93;100.00
56944;BME280;42848;42.524;12.052;2023-03-13T07:26:37;97023.31;;;11.97;100.00
56944;BME280;42848;42.524;12.052;2023-03-13T07:29:03;97032.91;;;11.86;100.00
56944;BME280;42848;42.524;12.052;2023-03-13T07:31:28;97024.59;;;12.08;100.00
56944;BME280;42848;42.524;12.052;2023-03-13T07:33:58;97039.94;;;12.04;100.00
56944;BME280;42848;42.524;12.052;2023-03-13T07:36:24;97036.44;;;11.95;100.00
56944;BME280;42848;42.524;12.052;2023-03-13T07:38:51;97037.22;;;11.95;100.00
56944;BME280;42848;42.524;12.052;2023-03-13T07:41:18;97033.22;;;11.84;100.00
56944;BME280;42848;42.524;12.052;2023-03-13T07:43:44;97035.94;;;12.02;100.00
56944;BME280;42848;42.524;12.052;2023-03-13T07:46:13;97046.34;;;12.08;100.00
56944;BME280;42848;42.524;12.052;2023-03-13T07:48:41;97048.28;;;12.16;100.00
56944;BME280;42848;42.524;12.052;2023-03-13T07:53:38;97055.13;;;12.14;100.00
56944;BME280;42848;42.524;12.052;2023-03-13T07:56:10;97053.72;;;12.16;100.00
56944;BME280;42848;42.524;12.052;2023-03-13T07:58:37;97050.16;;;12.24;100.00
56944;BME280;42848;42.524;12.052;2023-03-13T08:01:14;97056.91;;;12.36;100.00
56944;BME280;42848;42.524;12.052;2023-03-13T08:03:40;97048.06;;;12.39;100.00
56944;BME280;42848;42.524;12.052;2023-03-13T08:06:08;97060.91;;;12.12;100.00
56944;BME280;42848;42.524;12.052;2023-03-13T08:08:35;97051.31;;;11.98;100.00
56944;BME280;42848;42.524;12.052;2023-03-13T08:11:06;97055.44;;;12.38;100.00
56944;BME280;42848;42.524;12.052;2023-03-13T08:13:33;97052.28;;;12.02;100.00
56944;BME280;42848;42.524;12.052;2023-03-13T08:16:10;97058.03;;;12.26;100.00
56944;BME280;42848;42.524;12.052;2023-03-13T08:18:38;97063.59;;;12.47;100.00
56944;BME280;42848;42.524;12.052;2023-03-13T08:21:09;97058.50;;;12.37;100.00
56944;BME280;42848;42.524;12.052;2023-03-13T08:23:35;97058.28;;;12.50;100.00
56944;BME280;42848;42.524;12.052;2023-03-13T08:26:05;97061.38;;;12.32;100.00
56944;BME280;42848;42.524;12.052;2023-03-13T08:28:31;97062.94;;;12.50;100.00
56944;BME280;42848;42.524;12.052;2023-03-13T08:30:57;97073.31;;;12.65;100.00
56944;BME280;42848;42.524;12.052;2023-03-13T08:33:22;97075.84;;;12.70;100.00
56944;BME280;42848;42.524;12.052;2023-03-13T08:35:48;97088.84;;;12.73;100.00
56944;BME280;42848;42.524;12.052;2023-03-13T08:38:14;97086.25;;;12.86;100.00
56944;BME280;42848;42.524;12.052;2023-03-13T08:40:40;97096.09;;;12.52;100.00
56944;BME280;42848;42.524;12.052;2023-03-13T08:43:05;97094.03;;;12.49;100.00
56944;BME280;42848;42.524;12.052;2023-03-13T08:45:31;97107.00;;;12.43;100.00
56944;BME280;42848;42.524;12.052;2023-03-13T08:47:56;97109.09;;;12.38;100.00
56944;BME280;42848;42.524;12.052;2023-03-13T08:50:22;97102.81;;;12.63;100.00
56944;BME280;42848;42.524;12.052;2023-03-13T08:52:47;97111.16;;;12.41;100.00
56944;BME280;42848;42.524;12.052;2023-03-13T08:55:13;97105.41;;;12.25;100.00
56944;BME280;42848;42.524;12.052;2023-03-13T08:57:38;97105.38;;;12.51;100.00
56944;BME280;42848;42.524;12.052;2023-03-13T09:00:04;97106.97;;;12.52;100.00
56944;BME280;42848;42.524;12.052;2023-03-13T09:02:31;97115.81;;;12.49;100.00
56944;BME280;42848;42.524;12.052;2023-03-13T09:04:57;97108.25;;;12.72;100.00
56944;BME280;42848;42.524;12.052;2023-03-13T09:07:22;97116.09;;;12.73;100.00
56944;BME280;42848;42.524;12.052;2023-03-13T09:09:48;97108.88;;;12.69;100.00
56944;BME280;42848;42.524;12.052;2023-03-13T09:12:14;97104.41;;;12.64;100.00
56944;BME280;42848;42.524;12.052;2023-03-13T09:14:40;97108.88;;;12.60;100.00
56944;BME280;42848;42.524;12.052;2023-03-13T09:17:07;97109.53;;;12.66;100.00
56944;BME280;42848;42.524;12.052;2023-03-13T09:19:32;97104.84;;;12.84;100.00
56944;BME280;42848;42.524;12.052;2023-03-13T09:21:58;97103.84;;;12.97;100.00
56944;BME280;42848;42.524;12.052;2023-03-13T09:24:24;97104.41;;;13.28;100.00
56944;BME280;42848;42.524;12.052;2023-03-13T09:26:50;97100.16;;;12.93;100.00
56944;BME280;42848;42.524;12.052;2023-03-13T09:29:15;97096.59;;;13.09;100.00
56944;BME280;42848;42.524;12.052;2023-03-13T09:31:41;97105.53;;;13.27;100.00
56944;BME280;42848;42.524;12.052;2023-03-13T09:34:07;97097.88;;;13.03;100.00
56944;BME280;42848;42.524;12.052;2023-03-13T09:36:32;97099.94;;;13.53;100.00
56944;BME280;42848;42.524;12.052;2023-03-13T09:38:59;97090.56;;;13.33;100.00
56944;BME280;42848;42.524;12.052;2023-03-13T09:41:43;97097.53;;;13.52;100.00
56944;BME280;42848;42.524;12.052;2023-03-13T09:46:40;97099.56;;;13.25;100.00
56944;BME280;42848;42.524;12.052;2023-03-13T09:51:59;97096.88;;;13.55;100.00
56944;BME280;42848;42.524;12.052;2023-03-13T09:54:37;97098.31;;;13.52;100.00
56944;BME280;42848;42.524;12.052;2023-03-13T09:57:15;97092.44;;;13.71;100.00
56944;BME280;42848;42.524;12.052;2023-03-13T09:59:50;97094.63;;;13.57;100.00
56944;BME280;42848;42.524;12.052;2023-03-13T10:02:32;97102.34;;;13.55;100.00
56944;BME280;42848;42.524;12.052;2023-03-13T10:07:39;97094.63;;;13.57;100.00
56944;BME280;42848;42.524;12.052;2023-03-13T10:13:13;97097.78;;;13.88;100.00
56944;BME280;42848;42.524;12.052;2023-03-13T10:18:18;97098.84;;;13.75;100.00
56944;BME280;42848;42.524;12.052;2023-03-13T10:20:49;97091.69;;;13.91;100.00
56944;BME280;42848;42.524;12.052;2023-03-13T10:23:39;97090.53;;;13.92;100.00
56944;BME280;42848;42.524;12.052;2023-03-13T10:26:14;97085.75;;;14.10;100.00
56944;BME280;42848;42.524;12.052;2023-03-13T10:28:42;97082.88;;;14.07;100.00
56944;BME280;42848;42.524;12.052;2023-03-13T10:31:18;97083.19;;;14.26;100.00
56944;BME280;42848;42.524;12.052;2023-03-13T10:33:46;97082.91;;;14.40;100.00
56944;BME280;42848;42.524;12.052;2023-03-13T10:36:13;97083.59;;;14.16;100.00
56944;BME280;42848;42.524;12.052;2023-03-13T10:38:50;97086.63;;;14.35;100.00
56944;BME280;42848;42.524;12.052;2023-03-13T10:41:27;97093.50;;;14.41;100.00
56944;BME280;42848;42.524;12.052;2023-03-13T10:43:58;97088.72;;;14.38;100.00
56944;BME280;42848;42.524;12.052;2023-03-13T10:46:28;97081.03;;;14.52;100.00
56944;BME280;42848;42.524;12.052;2023-03-13T10:48:56;97083.44;;;14.33;100.00
56944;BME280;42848;42.524;12.052;2023-03-13T10:51:24;97094.19;;;14.38;100.00
56944;BME280;42848;42.524;12.052;2023-03-13T10:53:56;97096.22;;;14.41;100.00
56944;BME280;42848;42.524;12.052;2023-03-13T10:56:29;97097.03;;;14.42;100.00
56944;BME280;42848;42.524;12.052;2023-03-13T10:58:54;97088.00;;;14.50;100.00
56944;BME280;42848;42.524;12.052;2023-03-13T11:01:25;97093.41;;;14.71;100.00
56944;BME280;42848;42.524;12.052;2023-03-13T11:03:55;97107.03;;;14.59;100.00
56944;BME280;42848;42.524;12.052;2023-03-13T11:08:46;97093.91;;;14.31;100.00
56944;BME280;42848;42.524;12.052;2023-03-13T11:11:18;97087.31;;;14.53;100.00
56944;BME280;42848;42.524;12.052;2023-03-13T11:13:44;97075.41;;;14.70;100.00
56944;BME280;42848;42.524;12.052;2023-03-13T11:24:39;97078.66;;;14.96;100.00
56944;BME280;42848;42.524;12.052;2023-03-13T11:27:26;97075.72;;;15.01;100.00
56944;BME280;42848;42.524;12.052;2023-03-13T11:30:05;97081.41;;;15.08;100.00
56944;BME280;42848;42.524;12.052;2023-03-13T11:32:46;97083.13;;;15.13;100.00
56944;BME280;42848;42.524;12.052;2023-03-13T11:37:54;97076.41;;;15.47;100.00
56944;BME280;42848;42.524;12.052;2023-03-13T11:40:31;97074.13;;;15.25;100.00
56944;BME280;42848;42.524;12.052;2023-03-13T11:43:21;97068.41;;;14.93;100.00
56944;BME280;42848;42.524;12.052;2023-03-13T11:52:08;97054.50;;;14.98;100.00
56944;BME280;42848;42.524;12.052;2023-03-13T11:55:09;97033.78;;;15.34;100.00
56944;BME280;42848;42.524;12.052;2023-03-13T12:00:40;97026.38;;;15.47;100.00
56944;BME280;42848;42.524;12.052;2023-03-13T12:03:15;97034.69;;;15.62;100.00
56944;BME280;42848;42.524;12.052;2023-03-13T12:05:54;97027.75;;;15.65;100.00
56944;BME280;42848;42.524;12.052;2023-03-13T12:13:43;97013.38;;;15.44;100.00
56944;BME280;42848;42.524;12.052;2023-03-13T12:16:16;97000.75;;;15.39;100.00
56944;BME280;42848;42.524;12.052;2023-03-13T12:18:45;97001.75;;;15.34;100.00
56944;BME280;42848;42.524;12.052;2023-03-13T12:26:45;97011.66;;;15.51;100.00
56944;BME280;42848;42.524;12.052;2023-03-13T12:29:14;97001.28;;;15.45;100.00
56944;BME280;42848;42.524;12.052;2023-03-13T12:31:52;96995.47;;;15.58;100.00
56944;BME280;42848;42.524;12.052;2023-03-13T12:37:01;96989.97;;;15.83;96.48
56944;BME280;42848;42.524;12.052;2023-03-13T12:42:52;96992.72;;;15.71;100.00
56944;BME280;42848;42.524;12.052;2023-03-13T12:45:21;96987.25;;;15.71;98.79
56944;BME280;42848;42.524;12.052;2023-03-13T12:59:09;96980.16;;;16.10;94.58
56944;BME280;42848;42.524;12.052;2023-03-13T13:01:44;96983.69;;;16.10;99.17
56944;BME280;42848;42.524;12.052;2023-03-13T13:04:13;96974.53;;;16.18;99.26
56944;BME280;42848;42.524;12.052;2023-03-13T13:09:34;96964.47;;;15.95;96.27
56944;BME280;42848;42.524;12.052;2023-03-13T13:12:20;96960.22;;;16.25;98.82
56944;BME280;42848;42.524;12.052;2023-03-13T13:19:50;96960.25;;;16.41;99.62
56944;BME280;42848;42.524;12.052;2023-03-13T13:32:53;96963.06;;;16.29;100.00
56944;BME280;42848;42.524;12.052;2023-03-13T13:35:29;96958.84;;;16.03;100.00
56944;BME280;42848;42.524;12.052;2023-03-13T13:43:23;96951.97;;;16.09;100.00
56944;BME280;42848;42.524;12.052;2023-03-13T13:48:30;96952.34;;;16.24;96.02
56944;BME280;42848;42.524;12.052;2023-03-13T13:53:55;96948.66;;;16.32;96.22
56944;BME280;42848;42.524;12.052;2023-03-13T14:01:45;96943.38;;;16.39;89.33
56944;BME280;42848;42.524;12.052;2023-03-13T14:04:27;96945.06;;;16.59;91.73
56944;BME280;42848;42.524;12.052;2023-03-13T14:06:57;96935.66;;;16.44;88.08
56944;BME280;42848;42.524;12.052;2023-03-13T14:15:07;96930.59;;;16.74;91.76
56944;BME280;42848;42.524;12.052;2023-03-13T14:17:48;96931.16;;;16.68;90.28
56944;BME280;42848;42.524;12.052;2023-03-13T14:20:22;96924.09;;;16.51;91.37
56944;BME280;42848;42.524;12.052;2023-03-13T14:22:49;96924.34;;;16.30;93.73
56944;BME280;42848;42.524;12.052;2023-03-13T14:25:15;96920.28;;;16.40;94.52
56944;BME280;42848;42.524;12.052;2023-03-13T14:27:45;96925.38;;;16.26;92.36
56944;BME280;42848;42.524;12.052;2023-03-13T14:30:21;96918.50;;;16.63;92.26
56944;BME280;42848;42.524;12.052;2023-03-13T14:32:48;96919.75;;;16.82;92.19
56944;BME280;42848;42.524;12.052;2023-03-13T14:35:16;96914.63;;;16.96;91.79
56944;BME280;42848;42.524;12.052;2023-03-13T14:37:51;96913.03;;;16.95;91.20
56944;BME280;42848;42.524;12.052;2023-03-13T14:40:24;96907.22;;;16.81;93.33
56944;BME280;42848;42.524;12.052;2023-03-13T14:42:56;96899.34;;;16.95;90.28
56944;BME280;42848;42.524;12.052;2023-03-13T14:47:51;96891.84;;;16.92;94.72
56944;BME280;42848;42.524;12.052;2023-03-13T14:50:18;96896.09;;;16.73;94.67
56944;BME280;42848;42.524;12.052;2023-03-13T14:52:48;96899.28;;;16.75;92.06
56944;BME280;42848;42.524;12.052;2023-03-13T14:58:01;96888.47;;;16.83;93.86